createdAt,value
2023-03-06T00:01:25.060Z,13.70
2023-03-06T00:04:02.164Z,14.30
2023-03-06T00:06:30.608Z,14.33
2023-03-06T00:09:13.111Z,14.53
2023-03-06T00:11:48.204Z,14.70
2023-03-06T00:14:23.121Z,14.90
2023-03-06T00:16:51.523Z,15.50
2023-03-06T00:19:26.430Z,15.20
2023-03-06T00:21:55.288Z,15.83
2023-03-06T00:24:32.422Z,16.37
2023-03-06T00:27:01.179Z,16.27
2023-03-06T00:29:36.131Z,15.83
2023-03-06T00:32:04.763Z,16.60
2023-03-06T00:34:40.450Z,16.57
2023-03-06T00:37:09.172Z,16.73
2023-03-06T00:39:45.077Z,18.43
2023-03-06T00:42:13.792Z,17.60
2023-03-06T00:44:49.448Z,16.70
2023-03-06T00:47:18.682Z,17.90
2023-03-06T00:49:53.164Z,16.60
2023-03-06T00:52:21.678Z,17.80
2023-03-06T00:54:58.464Z,17.90
2023-03-06T00:57:27.430Z,18.43
2023-03-06T01:00:02.176Z,18.63
2023-03-06T01:02:30.507Z,18.70
2023-03-06T01:05:06.422Z,17.93
2023-03-06T01:07:41.876Z,18.43
2023-03-06T01:10:24.458Z,19.50
2023-03-06T01:12:52.879Z,18.80
2023-03-06T01:15:28.338Z,19.23
2023-03-06T01:17:56.925Z,19.17
2023-03-06T01:20:32.148Z,18.03
2023-03-06T01:23:00.760Z,18.80
2023-03-06T01:25:37.434Z,21.00
2023-03-06T01:28:05.980Z,20.90
2023-03-06T01:30:41.467Z,21.57
2023-03-06T01:33:09.898Z,20.47
2023-03-06T01:35:46.174Z,20.23
2023-03-06T01:38:14.684Z,21.07
2023-03-06T01:40:51.254Z,22.03
2023-03-06T01:43:31.608Z,21.27
2023-03-06T01:46:44.226Z,21.67
2023-03-06T01:49:21.445Z,21.90
2023-03-06T01:52:00.577Z,21.10
2023-03-06T01:54:32.933Z,21.63
2023-03-06T01:57:13.452Z,21.77
2023-03-06T01:59:43.801Z,22.00
2023-03-06T02:02:20.287Z,22.20
2023-03-06T02:04:56.904Z,20.97
2023-03-06T02:07:39.483Z,21.87
2023-03-06T02:10:09.107Z,20.73
2023-03-06T02:12:50.203Z,21.10
2023-03-06T02:15:21.752Z,20.50
2023-03-06T02:17:59.218Z,22.30
2023-03-06T02:20:35.721Z,21.43
2023-03-06T02:23:15.294Z,22.67
2023-03-06T02:25:47.272Z,22.80
2023-03-06T02:28:25.229Z,22.43
2023-03-06T02:30:55.376Z,21.97
2023-03-06T02:33:45.220Z,22.53
2023-03-06T02:36:21.040Z,22.33
2023-03-06T02:39:00.412Z,22.03
2023-03-06T02:41:30.659Z,23.73
2023-03-06T02:44:06.436Z,22.60
2023-03-06T02:46:34.942Z,21.60
2023-03-06T02:49:09.543Z,22.53
2023-03-06T02:51:38.372Z,22.67
2023-03-06T02:54:13.408Z,24.03
2023-03-06T02:56:43.983Z,22.87
2023-03-06T02:59:19.302Z,23.03
2023-03-06T03:01:48.321Z,22.77
2023-03-06T03:04:23.269Z,23.07
2023-03-06T03:06:57.793Z,23.40
2023-03-06T03:09:32.277Z,23.37
2023-03-06T03:12:02.366Z,23.23
2023-03-06T03:14:37.522Z,23.30
2023-03-06T03:17:06.137Z,24.00
2023-03-06T03:19:42.312Z,22.80
2023-03-06T03:22:10.878Z,21.83
2023-03-06T03:24:47.724Z,22.57
2023-03-06T03:27:17.886Z,22.00
2023-03-06T03:29:53.404Z,22.27
2023-03-06T03:32:22.018Z,23.83
2023-03-06T03:34:58.023Z,23.67
2023-03-06T03:37:26.999Z,24.07
2023-03-06T03:40:03.325Z,22.50
2023-03-06T03:42:33.496Z,23.80
2023-03-06T03:45:08.366Z,23.10
2023-03-06T03:47:36.977Z,24.27
2023-03-06T03:50:12.331Z,22.97
2023-03-06T03:52:43.754Z,23.83
2023-03-06T03:55:19.327Z,23.70
2023-03-06T03:57:49.602Z,22.63
2023-03-06T04:00:26.610Z,21.93
2023-03-06T04:02:55.197Z,23.70
2023-03-06T04:05:37.307Z,23.30
2023-03-06T04:08:13.157Z,22.83
2023-03-06T04:10:48.311Z,22.77
2023-03-06T04:13:22.441Z,22.37
2023-03-06T04:15:59.337Z,21.90
2023-03-06T04:18:28.611Z,22.77
2023-03-06T04:21:03.332Z,22.23
2023-03-06T04:23:31.961Z,22.60
2023-03-06T04:26:07.332Z,23.30
2023-03-06T04:28:37.720Z,23.23
2023-03-06T04:31:13.427Z,22.30
2023-03-06T04:33:41.943Z,24.07
2023-03-06T04:36:35.627Z,23.73
2023-03-06T04:39:11.694Z,22.73
2023-03-06T04:41:41.191Z,23.20
2023-03-06T04:44:18.685Z,22.17
2023-03-06T04:46:47.426Z,22.20
2023-03-06T04:49:22.644Z,22.50
2023-03-06T04:51:51.088Z,22.23
2023-03-06T04:54:26.682Z,23.93
2023-03-06T04:56:55.214Z,23.13
2023-03-06T04:59:32.347Z,22.60
2023-03-06T05:02:01.345Z,22.60
2023-03-06T05:04:43.783Z,23.50
2023-03-06T05:07:19.110Z,22.67
2023-03-06T05:09:54.694Z,22.67
2023-03-06T05:12:23.133Z,22.83
2023-03-06T05:14:59.455Z,23.87
2023-03-06T05:17:28.115Z,23.47
2023-03-06T05:20:03.433Z,22.50
2023-03-06T05:22:32.707Z,23.23
2023-03-06T05:25:07.378Z,24.03
2023-03-06T05:27:36.595Z,23.93
2023-03-06T05:30:15.672Z,23.30
2023-03-06T05:32:44.666Z,23.27
2023-03-06T05:35:25.400Z,23.73
2023-03-06T05:37:54.432Z,24.97
2023-03-06T05:40:29.389Z,24.37
2023-03-06T05:42:57.885Z,24.13
2023-03-06T05:45:34.730Z,24.47
2023-03-06T05:48:03.750Z,24.77
2023-03-06T05:50:39.680Z,24.60
2023-03-06T05:53:08.881Z,25.07
2023-03-06T05:55:44.684Z,25.00
2023-03-06T05:58:13.130Z,26.43
2023-03-06T06:00:49.687Z,25.27
2023-03-06T06:03:18.507Z,25.67
2023-03-06T06:06:00.525Z,26.30
2023-03-06T06:08:29.136Z,26.23
2023-03-06T06:11:04.396Z,24.73
2023-03-06T06:13:33.575Z,25.60
2023-03-06T06:16:15.485Z,25.67
2023-03-06T06:18:46.474Z,25.77
2023-03-06T06:21:22.435Z,25.67
2023-03-06T06:23:51.286Z,25.97
2023-03-06T06:26:26.479Z,25.70
2023-03-06T06:28:54.890Z,27.60
2023-03-06T06:31:31.555Z,26.27
2023-03-06T06:34:00.102Z,26.20
2023-03-06T06:36:35.419Z,26.40
2023-03-06T06:39:04.066Z,26.03
2023-03-06T06:41:56.990Z,26.33
2023-03-06T06:44:29.051Z,24.77
2023-03-06T06:47:23.624Z,24.53
2023-03-06T06:49:53.960Z,26.57
2023-03-06T06:52:29.780Z,25.97
2023-03-06T06:54:59.224Z,25.70
2023-03-06T06:57:34.562Z,26.03
2023-03-06T07:00:03.427Z,26.13
2023-03-06T07:02:40.445Z,27.60
2023-03-06T07:05:15.964Z,26.97
2023-03-06T07:07:58.822Z,26.80
2023-03-06T07:10:27.955Z,26.87
2023-03-06T07:13:03.420Z,25.17
2023-03-06T07:15:38.834Z,27.47
2023-03-06T07:18:08.964Z,27.93
2023-03-06T07:20:45.470Z,25.10
2023-03-06T07:23:14.556Z,25.90
2023-03-06T07:25:49.795Z,26.53
2023-03-06T07:28:19.868Z,26.90
2023-03-06T07:30:55.519Z,27.10
2023-03-06T07:33:25.850Z,26.93
2023-03-06T07:36:00.539Z,26.20
2023-03-06T07:38:30.002Z,27.27
2023-03-06T07:41:04.813Z,26.10
2023-03-06T07:43:33.641Z,25.60
2023-03-06T07:46:08.581Z,25.90
2023-03-06T07:48:40.550Z,26.30
2023-03-06T07:51:21.799Z,26.83
2023-03-06T07:53:51.245Z,26.20
2023-03-06T07:56:26.538Z,24.87
2023-03-06T07:58:57.057Z,25.23
2023-03-06T08:01:32.542Z,25.23
2023-03-06T08:04:09.370Z,25.03
2023-03-06T08:06:51.516Z,25.70
2023-03-06T08:09:20.326Z,24.90
2023-03-06T08:11:55.856Z,24.30
2023-03-06T08:14:24.542Z,24.47
2023-03-06T08:16:59.857Z,24.03
2023-03-06T08:19:30.550Z,24.67
2023-03-06T08:22:05.587Z,24.97
2023-03-06T08:24:34.266Z,24.20
2023-03-06T08:27:09.561Z,24.70
2023-03-06T08:29:38.074Z,24.50
2023-03-06T08:32:14.055Z,25.23
2023-03-06T08:34:45.889Z,24.60
2023-03-06T08:37:20.886Z,23.33
2023-03-06T08:39:49.460Z,24.47
2023-03-06T08:42:24.606Z,22.37
2023-03-06T08:44:53.151Z,23.40
2023-03-06T08:47:28.844Z,23.40
2023-03-06T08:50:00.704Z,22.87
2023-03-06T08:52:35.887Z,23.03
2023-03-06T08:55:05.375Z,22.57
2023-03-06T08:57:40.945Z,23.57
2023-03-06T09:00:13.212Z,23.13
2023-03-06T09:02:48.610Z,22.57
2023-03-06T09:05:25.101Z,24.03
2023-03-06T09:08:06.877Z,21.13
2023-03-06T09:10:35.852Z,23.80
2023-03-06T09:13:10.588Z,23.57
2023-03-06T09:15:39.240Z,22.40
2023-03-06T09:18:14.586Z,23.70
2023-03-06T09:20:44.637Z,22.57
2023-03-06T09:23:19.627Z,22.87
2023-03-06T09:25:52.768Z,22.53
2023-03-06T09:28:27.926Z,23.13
2023-03-06T09:30:56.770Z,22.80
2023-03-06T09:33:32.574Z,23.10
2023-03-06T09:36:04.330Z,21.47
2023-03-06T09:38:39.935Z,21.67
2023-03-06T09:41:16.505Z,21.83
2023-03-06T09:43:54.859Z,22.13
2023-03-06T09:46:31.762Z,22.23
2023-03-06T09:49:17.779Z,21.37
2023-03-06T09:51:59.303Z,21.43
2023-03-06T09:54:47.606Z,22.27
2023-03-06T09:57:23.301Z,21.43
2023-03-06T10:00:04.498Z,20.70
2023-03-06T10:02:40.271Z,19.73
2023-03-06T10:05:20.640Z,20.87
2023-03-06T10:08:02.142Z,20.87
2023-03-06T10:10:52.591Z,20.73
2023-03-06T10:13:27.267Z,21.07
2023-03-06T10:16:09.990Z,20.27
2023-03-06T10:18:39.328Z,20.83
2023-03-06T10:21:29.938Z,21.93
2023-03-06T10:24:14.663Z,21.53
2023-03-06T10:26:50.185Z,22.90
2023-03-06T10:29:56.367Z,22.40
2023-03-06T10:32:46.309Z,22.20
2023-03-06T10:35:28.653Z,22.07
2023-03-06T10:38:13.432Z,21.37
2023-03-06T10:40:56.693Z,20.20
2023-03-06T10:43:26.149Z,21.50
2023-03-06T10:46:01.700Z,21.73
2023-03-06T10:48:41.700Z,20.00
2023-03-06T10:51:26.734Z,20.73
2023-03-06T10:53:57.355Z,18.70
2023-03-06T10:56:38.630Z,19.67
2023-03-06T10:59:14.076Z,17.00
2023-03-06T11:01:51.798Z,16.60
2023-03-06T11:04:42.750Z,15.83
2023-03-06T11:07:24.050Z,15.33
2023-03-06T11:10:09.105Z,15.77
2023-03-06T11:12:46.987Z,15.63
2023-03-06T11:15:32.239Z,15.93
2023-03-06T11:18:10.696Z,15.73
2023-03-06T11:20:52.150Z,14.83
2023-03-06T11:23:35.215Z,15.43
2023-03-06T11:26:11.095Z,15.13
2023-03-06T11:28:53.940Z,14.50
2023-03-06T11:31:27.215Z,16.00
2023-03-06T11:34:06.936Z,14.23
2023-03-06T11:36:42.584Z,14.67
2023-03-06T11:39:27.973Z,15.30
2023-03-06T11:42:05.390Z,15.00
2023-03-06T11:45:00.351Z,14.70
2023-03-06T11:47:33.730Z,15.47
2023-03-06T11:50:23.061Z,14.90
2023-03-06T11:52:55.202Z,14.87
2023-03-06T11:55:48.873Z,14.80
2023-03-06T11:58:49.028Z,15.10
2023-03-06T12:01:31.755Z,14.20
2023-03-06T12:04:26.284Z,13.90
2023-03-06T12:07:17.043Z,14.77
2023-03-06T12:09:50.600Z,14.50
2023-03-06T12:12:57.774Z,15.20
2023-03-06T12:15:37.832Z,14.23
2023-03-06T12:18:35.051Z,15.07
2023-03-06T12:21:08.700Z,14.83
2023-03-06T12:24:08.076Z,15.17
2023-03-06T12:27:01.888Z,13.77
2023-03-06T12:29:49.783Z,14.23
2023-03-06T12:32:29.878Z,14.07
2023-03-06T12:35:24.573Z,15.00
2023-03-06T12:38:09.820Z,15.17
2023-03-06T12:40:49.127Z,15.57
2023-03-06T12:43:42.796Z,15.67
2023-03-06T12:46:15.516Z,15.47
2023-03-06T12:48:57.053Z,16.23
2023-03-06T12:51:34.042Z,15.73
2023-03-06T12:54:04.582Z,16.77
2023-03-06T12:56:40.786Z,16.83
2023-03-06T12:59:43.855Z,16.03
2023-03-06T13:02:50.384Z,17.67
2023-03-06T13:06:03.833Z,17.67
2023-03-06T13:09:00.516Z,17.00
2023-03-06T13:11:48.098Z,16.83
2023-03-06T13:14:27.567Z,17.23
2023-03-06T13:17:04.156Z,16.73
2023-03-06T13:19:32.689Z,17.17
2023-03-06T13:22:10.206Z,16.07
2023-03-06T13:24:40.397Z,15.97
2023-03-06T13:27:18.127Z,16.80
2023-03-06T13:30:06.675Z,17.60
2023-03-06T13:32:43.860Z,15.87
2023-03-06T13:35:49.258Z,16.37
2023-03-06T13:38:39.791Z,15.57
2023-03-06T13:41:43.298Z,16.07
2023-03-06T13:44:55.893Z,16.73
2023-03-06T13:48:09.738Z,16.37
2023-03-06T13:50:47.920Z,15.97
2023-03-06T13:53:48.899Z,15.60
2023-03-06T13:56:31.193Z,15.87
2023-03-06T13:59:24.097Z,15.73
2023-03-06T14:02:13.022Z,16.40
2023-03-06T14:05:01.591Z,15.97
2023-03-06T14:07:47.812Z,14.87
2023-03-06T14:10:25.387Z,15.20
2023-03-06T14:13:09.917Z,15.13
2023-03-06T14:15:45.970Z,14.67
2023-03-06T14:18:32.799Z,15.03
2023-03-06T14:21:03.005Z,14.37
2023-03-06T14:23:41.875Z,14.37
2023-03-06T14:26:17.801Z,13.97
2023-03-06T14:28:54.145Z,15.20
2023-03-06T14:31:26.635Z,14.43
2023-03-06T14:34:03.834Z,14.93
2023-03-06T14:36:41.847Z,15.43
2023-03-06T14:39:15.272Z,15.83
2023-03-06T14:41:49.824Z,15.53
2023-03-06T14:44:21.779Z,16.60
2023-03-06T14:46:59.928Z,15.37
2023-03-06T14:49:28.883Z,15.77
2023-03-06T14:52:06.893Z,15.23
2023-03-06T14:54:38.301Z,15.20
2023-03-06T14:57:18.002Z,15.87
2023-03-06T14:59:50.581Z,14.80
2023-03-06T15:02:30.939Z,14.97
2023-03-06T15:05:10.366Z,16.07
2023-03-06T15:07:52.245Z,15.53
2023-03-06T15:10:33.860Z,16.70
2023-03-06T15:13:10.939Z,16.17
2023-03-06T15:15:45.914Z,16.83
2023-03-06T15:18:51.147Z,16.13
2023-03-06T15:21:22.076Z,15.67
2023-03-06T15:23:59.143Z,16.37
2023-03-06T15:26:31.338Z,16.17
2023-03-06T15:29:10.447Z,16.30
2023-03-06T15:31:42.402Z,15.17
2023-03-06T15:34:30.932Z,14.73
2023-03-06T15:36:59.736Z,15.03
2023-03-06T15:39:39.955Z,13.77
2023-03-06T15:42:25.924Z,13.63
2023-03-06T15:44:56.558Z,13.77
2023-03-06T15:47:32.245Z,13.40
2023-03-06T15:50:02.551Z,14.77
2023-03-06T15:52:37.973Z,14.20
2023-03-06T15:55:06.917Z,13.80
2023-03-06T15:57:42.195Z,13.13
2023-03-06T16:00:27.070Z,13.57
2023-03-06T16:03:03.236Z,13.57
2023-03-06T16:05:46.976Z,14.70
2023-03-06T16:08:22.306Z,13.33
2023-03-06T16:10:58.983Z,14.37
2023-03-06T16:13:29.192Z,14.80
2023-03-06T16:16:04.239Z,14.67
2023-03-06T16:18:32.824Z,15.73
2023-03-06T16:21:09.269Z,15.87
2023-03-06T16:23:39.175Z,15.40
2023-03-06T16:26:15.280Z,14.53
2023-03-06T16:28:44.498Z,15.33
2023-03-06T16:31:21.036Z,15.20
2023-03-06T16:33:49.532Z,14.07
2023-03-06T16:36:28.938Z,16.00
2023-03-06T16:38:57.921Z,15.50
2023-03-06T16:41:32.948Z,14.90
2023-03-06T16:44:01.918Z,14.60
2023-03-06T16:46:39.163Z,15.10
2023-03-06T16:49:07.399Z,15.27
2023-03-06T16:51:45.954Z,15.33
2023-03-06T16:54:14.908Z,15.50
2023-03-06T16:56:50.059Z,15.80
2023-03-06T16:59:19.176Z,14.30
2023-03-06T17:01:54.267Z,14.77
2023-03-06T17:04:23.917Z,13.93
2023-03-06T17:07:06.925Z,12.07
2023-03-06T17:09:35.910Z,12.87
2023-03-06T17:12:11.296Z,28.40
2023-03-06T17:14:39.917Z,26.27
2023-03-06T17:17:15.402Z,27.23
2023-03-06T17:19:47.466Z,24.53
2023-03-06T17:22:25.325Z,17.07
2023-03-06T17:24:54.602Z,13.60
2023-03-06T17:27:31.308Z,12.30
2023-03-06T17:30:00.430Z,11.47
2023-03-06T17:32:36.024Z,12.07
2023-03-06T17:35:05.546Z,11.17
2023-03-06T17:37:42.281Z,11.20
2023-03-06T17:40:12.085Z,11.90
2023-03-06T17:42:47.126Z,12.53
2023-03-06T17:45:16.044Z,11.60
2023-03-06T17:47:51.329Z,12.53
2023-03-06T17:50:20.138Z,11.60
2023-03-06T17:52:57.314Z,11.10
2023-03-06T17:55:27.344Z,11.47
2023-03-06T17:58:02.070Z,11.33
2023-03-06T18:00:30.501Z,11.93
2023-03-06T18:03:05.026Z,12.33
2023-03-06T18:05:53.297Z,13.57
2023-03-06T18:08:30.356Z,12.67
2023-03-06T18:11:04.001Z,13.47
2023-03-06T18:13:39.098Z,12.67
2023-03-06T18:16:09.032Z,12.43
2023-03-06T18:18:44.089Z,12.20
2023-03-06T18:21:15.200Z,13.17
2023-03-06T18:23:52.405Z,12.17
2023-03-06T18:26:23.303Z,12.83
2023-03-06T18:29:02.054Z,13.80
2023-03-06T18:31:34.478Z,13.03
2023-03-06T18:34:13.080Z,14.13
2023-03-06T18:36:43.693Z,13.77
2023-03-06T18:39:21.465Z,13.67
2023-03-06T18:41:50.045Z,13.60
2023-03-06T18:44:26.405Z,14.07
2023-03-06T18:46:56.305Z,13.60
2023-03-06T18:49:31.398Z,12.70
2023-03-06T18:52:00.279Z,13.30
2023-03-06T18:54:37.397Z,13.40
2023-03-06T18:57:06.163Z,12.70
2023-03-06T18:59:41.139Z,14.43
2023-03-06T19:02:16.396Z,13.40
2023-03-06T19:04:45.232Z,13.53
2023-03-06T19:07:27.145Z,14.30
2023-03-06T19:09:57.278Z,14.77
2023-03-06T19:12:32.155Z,15.80
2023-03-06T19:15:01.441Z,23.50
2023-03-06T19:17:38.178Z,27.03
2023-03-06T19:20:08.587Z,17.80
2023-03-06T19:22:44.092Z,17.50
2023-03-06T19:25:14.437Z,17.73
2023-03-06T19:27:58.995Z,15.80
2023-03-06T19:30:27.560Z,14.77
2023-03-06T19:33:03.219Z,14.43
2023-03-06T19:35:32.339Z,14.57
2023-03-06T19:38:07.221Z,15.10
2023-03-06T19:40:37.555Z,13.93
2023-03-06T19:43:12.145Z,13.53
2023-03-06T19:45:44.440Z,14.33
2023-03-06T19:48:22.649Z,14.10
2023-03-06T19:50:51.780Z,14.47
2023-03-06T19:53:27.262Z,14.73
2023-03-06T19:56:04.669Z,13.53
2023-03-06T19:58:40.516Z,13.30
2023-03-06T20:01:11.534Z,13.73
2023-03-06T20:03:47.145Z,13.13
2023-03-06T20:06:24.683Z,14.33
2023-03-06T20:09:06.188Z,13.33
2023-03-06T20:11:36.705Z,13.83
2023-03-06T20:14:14.445Z,13.30
2023-03-06T20:16:43.016Z,11.93
2023-03-06T20:19:21.559Z,12.77
2023-03-06T20:21:50.489Z,12.40
2023-03-06T20:24:26.168Z,11.90
2023-03-06T20:26:57.712Z,11.40
2023-03-06T20:29:33.200Z,11.23
2023-03-06T20:32:01.737Z,10.40
2023-03-06T20:34:37.478Z,10.47
2023-03-06T20:37:06.121Z,10.47
2023-03-06T20:39:41.159Z,10.97
2023-03-06T20:42:11.394Z,10.00
2023-03-06T20:44:47.219Z,9.70
2023-03-06T20:47:15.705Z,9.77
2023-03-06T20:49:51.249Z,10.10
2023-03-06T20:52:19.873Z,9.80
2023-03-06T20:54:55.447Z,9.47
2023-03-06T20:57:25.519Z,10.10
2023-03-06T21:00:00.152Z,10.00
2023-03-06T21:02:28.860Z,9.63
2023-03-06T21:05:06.512Z,8.97
2023-03-06T21:07:41.714Z,9.67
2023-03-06T21:10:23.290Z,9.33
2023-03-06T21:12:53.483Z,9.53
2023-03-06T21:15:29.524Z,9.50
2023-03-06T21:17:58.243Z,10.03
2023-03-06T21:20:33.204Z,9.13
2023-03-06T21:23:04.429Z,9.33
2023-03-06T21:25:39.484Z,9.77
2023-03-06T21:28:09.699Z,8.93
2023-03-06T21:30:44.225Z,9.23
2023-03-06T21:33:12.805Z,9.30
2023-03-06T21:35:49.318Z,9.33
2023-03-06T21:38:17.879Z,8.97
2023-03-06T21:40:53.500Z,8.30
2023-03-06T21:43:23.645Z,9.00
2023-03-06T21:46:01.316Z,8.90
2023-03-06T21:48:29.788Z,8.27
2023-03-06T21:51:16.281Z,8.27
2023-03-06T21:53:45.454Z,7.97
2023-03-06T21:56:22.261Z,8.70
2023-03-06T21:58:52.495Z,8.53
2023-03-06T22:01:30.539Z,7.97
2023-03-06T22:04:00.398Z,8.87
2023-03-06T22:06:37.649Z,7.83
2023-03-06T22:09:15.031Z,7.80
2023-03-06T22:11:50.252Z,7.73
2023-03-06T22:14:20.100Z,7.60
2023-03-06T22:16:55.410Z,7.57
2023-03-06T22:19:24.235Z,6.73
2023-03-06T22:21:59.245Z,5.80
2023-03-06T22:24:34.587Z,5.07
2023-03-06T22:27:03.349Z,5.57
2023-03-06T22:29:40.498Z,5.50
2023-03-06T22:32:09.585Z,5.93
2023-03-06T22:34:44.320Z,5.43
2023-03-06T22:37:12.921Z,5.60
2023-03-06T22:39:48.314Z,5.87
2023-03-06T22:42:17.279Z,6.20
2023-03-06T22:44:54.304Z,7.30
2023-03-06T22:47:22.894Z,6.67
2023-03-06T22:49:58.558Z,7.03
2023-03-06T22:52:27.055Z,6.70
2023-03-06T22:55:02.413Z,5.87
2023-03-06T22:57:32.263Z,5.90
2023-03-06T23:00:09.317Z,5.50
2023-03-06T23:02:39.780Z,5.80
2023-03-06T23:05:15.225Z,4.50
2023-03-06T23:08:03.632Z,4.50
2023-03-06T23:10:39.274Z,4.10
2023-03-06T23:13:08.800Z,3.80
2023-03-06T23:15:45.308Z,3.40
2023-03-06T23:18:13.799Z,3.87
2023-03-06T23:20:50.323Z,3.97
2023-03-06T23:23:19.106Z,3.57
2023-03-06T23:25:54.325Z,3.97
2023-03-06T23:28:29.628Z,3.90
2023-03-06T23:30:59.842Z,4.10
2023-03-06T23:33:35.421Z,4.07
2023-03-06T23:36:04.542Z,3.83
2023-03-06T23:38:40.295Z,4.20
2023-03-06T23:41:10.890Z,3.80
2023-03-06T23:43:46.586Z,4.10
2023-03-06T23:46:16.958Z,4.30
2023-03-06T23:48:52.337Z,4.27
2023-03-06T23:51:22.457Z,5.20
2023-03-06T23:54:02.409Z,5.40
2023-03-06T23:56:31.261Z,5.50
2023-03-06T23:59:07.046Z,5.03
